Terminal Aerodrome Forecast
Issued by NWS

Home | Current Version | Previous Version | Text Only | Print | Product List | Glossary On
Versions: 1 2 3 4 5 6 7 8 9 10 11 12 13 14 15 16 17 18 19 20 21 22 23 24 25 26 27 28 29 30 31 32 33 34 35
000
FTUS45 KPSR 312300
TAFPHX
TAF
KPHX 312331Z 0100/0124 17006KT P6SM SCT026 BKN070 BKN090
      TEMPO 0100/0101 BKN026
     FM010300 12005KT P6SM BKN070
     FM011100 11003KT 6SM BR FEW060
     FM011500 08004KT P6SM FEW060
     FM012000 26006KT P6SM SCT060=

USA.gov is the U.S. government's official web portal to all federal, state and local government web resources and services.